createdAt,value
2018-06-11T00:02:27.654Z,78.05
2018-06-11T00:04:58.864Z,78.06
2018-06-11T00:07:30.140Z,78.52
2018-06-11T00:10:01.879Z,79.13
2018-06-11T00:12:33.466Z,79.24
2018-06-11T00:15:04.877Z,78.77
2018-06-11T00:17:36.447Z,78.33
2018-06-11T00:20:07.441Z,78.10
2018-06-11T00:22:39.352Z,78.57
2018-06-11T00:25:10.582Z,78.87
2018-06-11T00:27:41.721Z,78.85
2018-06-11T00:30:12.795Z,79.48
2018-06-11T00:32:43.957Z,79.74
2018-06-11T00:35:15.023Z,79.75
2018-06-11T00:37:45.978Z,79.92
2018-06-11T00:40:17.266Z,80.11
2018-06-11T00:42:48.240Z,80.18
2018-06-11T00:45:19.092Z,80.42
2018-06-11T00:47:50.198Z,80.54
2018-06-11T00:50:21.165Z,80.12
2018-06-11T00:52:51.571Z,80.33
2018-06-11T00:55:22.884Z,80.53
2018-06-11T00:57:53.776Z,81.36
2018-06-11T01:00:25.095Z,80.40
2018-06-11T01:02:56.157Z,80.33
2018-06-11T01:05:27.418Z,80.54
2018-06-11T01:07:59.062Z,80.12
2018-06-11T01:10:30.053Z,80.45
2018-06-11T01:13:02.122Z,81.00
2018-06-11T01:15:32.557Z,82.34
2018-06-11T01:18:03.765Z,82.90
2018-06-11T01:20:34.760Z,83.19
2018-06-11T01:23:06.277Z,83.74
2018-06-11T01:25:37.290Z,83.75
2018-06-11T01:28:08.218Z,84.48
2018-06-11T01:30:39.309Z,84.09
2018-06-11T01:33:10.278Z,84.16
2018-06-11T01:35:42.445Z,83.27
2018-06-11T01:38:13.283Z,82.25
2018-06-11T01:40:44.456Z,82.44
2018-06-11T01:43:15.604Z,81.82
2018-06-11T01:45:46.559Z,81.92
2018-06-11T01:48:17.508Z,82.70
2018-06-11T01:50:48.744Z,83.75
2018-06-11T01:53:19.987Z,83.65
2018-06-11T01:55:51.395Z,84.35
2018-06-11T01:58:23.708Z,84.31
2018-06-11T02:00:54.993Z,84.55
2018-06-11T02:03:27.098Z,84.98
2018-06-11T02:05:58.379Z,83.82
2018-06-11T02:08:29.408Z,82.87
2018-06-11T02:11:01.301Z,82.18
2018-06-11T02:13:32.491Z,81.86
2018-06-11T02:16:03.401Z,81.83
2018-06-11T02:18:34.499Z,81.92
2018-06-11T02:21:05.551Z,82.53
2018-06-11T02:23:36.586Z,83.30
2018-06-11T02:26:07.562Z,84.21
2018-06-11T02:28:38.676Z,84.75
2018-06-11T02:31:10.050Z,85.20
2018-06-11T02:33:41.240Z,85.35
2018-06-11T02:36:12.495Z,85.65
2018-06-11T02:38:43.524Z,85.83
2018-06-11T02:41:14.614Z,85.89
2018-06-11T02:43:46.929Z,85.94
2018-06-11T02:46:18.251Z,86.19
2018-06-11T02:48:50.268Z,85.94
2018-06-11T02:51:21.580Z,86.65
2018-06-11T02:53:52.949Z,86.33
2018-06-11T02:56:25.067Z,84.99
2018-06-11T02:58:56.249Z,84.71
2018-06-11T03:01:27.658Z,83.78
2018-06-11T03:03:58.902Z,82.30
2018-06-11T03:06:30.053Z,82.67
2018-06-11T03:09:00.978Z,82.72
2018-06-11T03:11:34.500Z,83.39
2018-06-11T03:14:05.821Z,84.06
2018-06-11T03:16:37.019Z,84.71
2018-06-11T03:19:08.219Z,85.09
2018-06-11T03:21:39.295Z,85.37
2018-06-11T03:24:09.680Z,86.29
2018-06-11T03:26:40.996Z,86.09
2018-06-11T03:29:11.996Z,86.48
2018-06-11T03:31:42.910Z,86.41
2018-06-11T03:34:14.799Z,86.72
2018-06-11T03:36:45.247Z,86.95
2018-06-11T03:39:16.325Z,86.64
2018-06-11T03:41:47.541Z,87.21
2018-06-11T03:44:18.575Z,87.33
2018-06-11T03:46:49.558Z,87.04
2018-06-11T03:49:21.557Z,87.14
2018-06-11T03:51:52.364Z,87.38
2018-06-11T03:54:23.307Z,87.11
2018-06-11T03:56:54.587Z,86.88
2018-06-11T03:59:26.971Z,87.38
2018-06-11T04:01:58.007Z,87.42
2018-06-11T04:04:28.993Z,86.78
2018-06-11T04:07:00.079Z,86.17
2018-06-11T04:09:31.171Z,86.23
2018-06-11T04:12:02.381Z,85.84
2018-06-11T04:14:33.392Z,85.54
2018-06-11T04:17:05.125Z,85.36
2018-06-11T04:19:36.182Z,85.52
2018-06-11T04:22:07.474Z,84.79
2018-06-11T04:24:38.487Z,84.13
2018-06-11T04:27:09.548Z,84.28
2018-06-11T04:29:41.007Z,84.16
2018-06-11T04:32:11.596Z,84.17
2018-06-11T04:34:43.867Z,84.00
2018-06-11T04:37:14.708Z,83.52
2018-06-11T04:39:45.846Z,83.72
2018-06-11T04:42:18.104Z,83.57
2018-06-11T04:44:49.193Z,83.87
2018-06-11T04:47:19.565Z,83.18
2018-06-11T04:49:50.821Z,82.25
2018-06-11T04:52:21.312Z,82.67
2018-06-11T04:54:52.468Z,82.07
2018-06-11T04:57:23.811Z,82.19
2018-06-11T04:59:54.793Z,81.90
2018-06-11T05:02:25.944Z,81.54
2018-06-11T05:04:56.907Z,81.09
2018-06-11T05:07:28.063Z,80.24
2018-06-11T05:09:59.027Z,80.14
2018-06-11T05:12:29.990Z,79.90
2018-06-11T05:15:00.973Z,79.94
2018-06-11T05:17:33.493Z,79.21
2018-06-11T05:20:04.643Z,78.62
2018-06-11T05:22:35.506Z,77.59
2018-06-11T05:25:06.702Z,76.71
2018-06-11T05:27:37.587Z,76.30
2018-06-11T05:30:08.829Z,74.94
2018-06-11T05:32:40.841Z,74.45
2018-06-11T05:35:12.738Z,73.93
2018-06-11T05:37:43.874Z,73.40
2018-06-11T05:40:14.936Z,72.91
2018-06-11T05:42:46.152Z,72.47
2018-06-11T05:45:16.636Z,72.34
2018-06-11T05:47:48.303Z,71.71
2018-06-11T05:50:19.570Z,71.28
2018-06-11T05:52:50.934Z,72.26
2018-06-11T05:55:22.663Z,71.39
2018-06-11T05:57:56.278Z,70.97
2018-06-11T06:00:27.851Z,70.89
2018-06-11T06:02:59.948Z,69.55
2018-06-11T06:05:32.606Z,69.37
2018-06-11T06:08:04.400Z,68.91
2018-06-11T06:10:35.498Z,67.99
2018-06-11T06:13:06.674Z,68.25
2018-06-11T06:15:39.593Z,67.40
2018-06-11T06:18:10.730Z,67.30
2018-06-11T06:20:42.173Z,64.76
2018-06-11T06:23:13.731Z,61.88
2018-06-11T06:25:45.731Z,60.38
2018-06-11T06:28:17.015Z,58.96
2018-06-11T06:30:49.245Z,56.31
2018-06-11T06:33:20.526Z,54.40
2018-06-11T06:35:52.200Z,53.86
2018-06-11T06:38:23.650Z,52.59
2018-06-11T06:40:54.841Z,51.35
2018-06-11T06:43:26.252Z,49.81
2018-06-11T06:45:58.742Z,48.65
2018-06-11T06:48:30.062Z,48.67
2018-06-11T06:51:01.664Z,45.91
2018-06-11T06:53:32.564Z,45.02
2018-06-11T06:56:03.798Z,44.66
2018-06-11T06:58:37.123Z,43.00
2018-06-11T07:01:08.348Z,42.29
2018-06-11T07:03:39.593Z,44.01
2018-06-11T07:06:12.262Z,42.18
2018-06-11T07:08:43.856Z,41.12
2018-06-11T07:11:16.128Z,40.92
2018-06-11T07:13:48.085Z,38.57
2018-06-11T07:16:20.314Z,38.68
2018-06-11T07:18:51.821Z,38.41
2018-06-11T07:21:23.209Z,37.75
2018-06-11T07:23:54.589Z,37.61
2018-06-11T07:26:26.550Z,36.98
2018-06-11T07:28:58.489Z,37.49
2018-06-11T07:31:30.040Z,36.77
2018-06-11T07:34:01.423Z,35.99
2018-06-11T07:36:33.201Z,36.03
2018-06-11T07:39:07.437Z,35.92
2018-06-11T07:41:39.515Z,34.50
2018-06-11T07:44:11.589Z,35.23
2018-06-11T07:46:42.936Z,35.18
2018-06-11T07:49:15.703Z,34.27
2018-06-11T07:51:47.747Z,32.70
2018-06-11T07:54:18.209Z,33.36
2018-06-11T07:56:50.279Z,33.62
2018-06-11T07:59:22.754Z,33.20
2018-06-11T08:01:54.292Z,32.98
2018-06-11T08:04:25.816Z,32.77
2018-06-11T08:06:57.939Z,32.14
2018-06-11T08:09:29.382Z,32.24
2018-06-11T08:12:09.613Z,32.44
2018-06-11T08:14:41.366Z,32.86
2018-06-11T08:17:13.297Z,32.79
2018-06-11T08:19:45.096Z,32.02
2018-06-11T08:22:16.596Z,31.84
2018-06-11T08:24:47.891Z,30.88
2018-06-11T08:27:20.406Z,30.17
2018-06-11T08:29:51.819Z,29.74
2018-06-11T08:32:23.478Z,29.67
2018-06-11T08:34:54.694Z,31.74
2018-06-11T08:37:26.580Z,31.34
2018-06-11T08:39:57.835Z,30.96
2018-06-11T08:42:29.241Z,30.36
2018-06-11T08:45:01.345Z,29.46
2018-06-11T08:47:32.340Z,28.52
2018-06-11T08:50:03.639Z,29.51
2018-06-11T08:52:34.936Z,28.84
2018-06-11T08:55:06.253Z,28.17
2018-06-11T08:57:37.685Z,27.11
2018-06-11T09:00:09.940Z,26.09
2018-06-11T09:02:41.999Z,25.75
2018-06-11T09:05:13.279Z,26.25
2018-06-11T09:07:45.239Z,25.71
2018-06-11T09:10:17.563Z,25.43
2018-06-11T09:12:48.867Z,24.23
2018-06-11T09:15:21.844Z,23.98
2018-06-11T09:17:53.064Z,25.53
2018-06-11T09:20:24.171Z,27.05
2018-06-11T09:22:55.334Z,25.24
2018-06-11T09:25:26.642Z,23.98
2018-06-11T09:27:58.813Z,27.17
2018-06-11T09:30:30.892Z,27.45
2018-06-11T09:33:01.968Z,28.42
2018-06-11T09:35:33.165Z,30.43
2018-06-11T09:38:05.126Z,28.67
2018-06-11T09:40:36.402Z,26.71
2018-06-11T09:43:08.088Z,26.25
2018-06-11T09:45:40.250Z,25.42
2018-06-11T09:48:11.826Z,24.57
2018-06-11T09:50:43.135Z,25.15
2018-06-11T09:53:14.514Z,29.02
2018-06-11T09:55:45.893Z,28.73
2018-06-11T09:58:17.544Z,28.59
2018-06-11T10:00:49.841Z,29.63
2018-06-11T10:03:21.579Z,27.20
2018-06-11T10:05:53.707Z,29.62
2018-06-11T10:22:49.751Z,27.02
2018-06-11T10:25:22.421Z,26.54
2018-06-11T10:27:54.470Z,27.41
2018-06-11T10:30:27.491Z,29.67
2018-06-11T10:32:58.841Z,29.79
2018-06-11T10:35:30.033Z,31.64
2018-06-11T10:38:01.182Z,29.54
2018-06-11T10:40:32.791Z,28.77
2018-06-11T10:43:04.184Z,26.54
2018-06-11T10:45:35.192Z,26.30
2018-06-11T10:48:06.784Z,25.39
2018-06-11T10:50:38.819Z,25.81
2018-06-11T10:53:10.601Z,25.42
2018-06-11T10:55:41.919Z,25.44
2018-06-11T10:58:13.417Z,25.06
2018-06-11T11:00:44.851Z,24.51
2018-06-11T11:03:16.699Z,23.64
2018-06-11T11:05:48.630Z,23.56
2018-06-11T11:08:20.953Z,23.74
2018-06-11T11:10:52.207Z,23.63
2018-06-11T11:13:23.649Z,25.18
2018-06-11T11:15:55.058Z,26.69
2018-06-11T11:18:26.563Z,27.40
2018-06-11T11:20:58.059Z,24.87
2018-06-11T11:23:29.461Z,30.50
2018-06-11T11:26:01.574Z,27.39
2018-06-11T11:28:32.468Z,28.33
2018-06-11T11:31:03.149Z,24.29
2018-06-11T11:33:34.270Z,25.44
2018-06-11T11:36:05.905Z,23.66
2018-06-11T11:38:38.833Z,27.10
2018-06-11T11:41:10.645Z,27.20
2018-06-11T11:43:43.044Z,27.03
2018-06-11T11:46:14.250Z,26.37
2018-06-11T11:48:45.682Z,26.56
2018-06-11T11:51:16.799Z,27.37
2018-06-11T11:53:48.254Z,25.17
2018-06-11T11:56:21.197Z,25.42
2018-06-11T11:58:53.227Z,24.56
2018-06-11T12:01:24.980Z,24.63
2018-06-11T12:03:56.297Z,27.02
2018-06-11T12:06:28.438Z,25.54
2018-06-11T12:08:59.692Z,24.08
2018-06-11T12:11:30.914Z,23.33
2018-06-11T12:14:02.960Z,25.46
2018-06-11T12:16:36.116Z,29.95
2018-06-11T12:19:07.386Z,28.10
2018-06-11T12:21:38.791Z,25.96
2018-06-11T12:24:10.650Z,25.79
2018-06-11T12:26:42.384Z,24.49
2018-06-11T12:29:13.568Z,24.53
2018-06-11T12:31:45.328Z,24.32
2018-06-11T12:34:17.472Z,24.35
2018-06-11T12:36:48.761Z,25.18
2018-06-11T12:39:20.967Z,24.54
2018-06-11T12:41:52.314Z,23.90
2018-06-11T12:44:24.375Z,23.10
2018-06-11T12:46:55.269Z,23.62
2018-06-11T12:49:26.041Z,26.32
2018-06-11T12:51:57.519Z,24.74
2018-06-11T12:54:29.083Z,27.10
2018-06-11T12:57:00.205Z,26.86
2018-06-11T12:59:31.818Z,26.93
2018-06-11T13:02:04.051Z,27.78
2018-06-11T13:04:35.568Z,31.43
2018-06-11T13:07:07.248Z,30.79
2018-06-11T13:09:39.568Z,28.32
2018-06-11T13:12:10.836Z,29.80
2018-06-11T13:14:42.085Z,32.34
2018-06-11T13:17:13.244Z,31.24
2018-06-11T13:19:44.548Z,29.49
2018-06-11T13:22:16.324Z,27.97
2018-06-11T13:24:47.908Z,30.99
2018-06-11T13:27:19.818Z,32.28
2018-06-11T13:29:51.088Z,33.78
2018-06-11T13:32:22.390Z,30.96
2018-06-11T13:34:54.465Z,30.75
2018-06-11T13:37:26.062Z,29.93
2018-06-11T13:39:57.920Z,29.01
2018-06-11T13:42:30.040Z,28.74
2018-06-11T13:45:01.706Z,30.06
2018-06-11T13:47:32.666Z,30.41
2018-06-11T13:50:04.061Z,32.75
2018-06-11T13:52:36.483Z,31.18
2018-06-11T13:55:08.373Z,29.96
2018-06-11T13:57:39.572Z,29.81
2018-06-11T14:00:11.817Z,34.91
2018-06-11T14:02:43.249Z,33.38
2018-06-11T14:05:19.910Z,32.66
2018-06-11T14:07:52.224Z,31.36
2018-06-11T14:10:23.253Z,32.15
2018-06-11T14:12:56.369Z,33.14
2018-06-11T14:15:28.151Z,33.91
2018-06-11T14:18:00.140Z,32.84
2018-06-11T14:20:31.257Z,32.28
2018-06-11T14:23:02.733Z,33.65
2018-06-11T14:25:34.649Z,36.91
2018-06-11T14:28:06.087Z,40.70
2018-06-11T14:30:39.122Z,39.77
2018-06-11T14:33:11.369Z,39.81
2018-06-11T14:35:42.983Z,38.00
2018-06-11T14:38:14.511Z,36.00
2018-06-11T14:40:45.615Z,35.49
2018-06-11T14:43:17.167Z,34.56
2018-06-11T14:45:48.893Z,34.35
2018-06-11T14:48:20.344Z,35.41
2018-06-11T14:50:51.647Z,39.67
2018-06-11T14:53:23.538Z,39.91
2018-06-11T14:55:54.877Z,41.36
2018-06-11T14:58:26.275Z,40.81
2018-06-11T15:00:58.848Z,43.00
2018-06-11T15:03:29.983Z,44.04
2018-06-11T15:06:01.318Z,43.21
2018-06-11T15:08:32.639Z,44.21
2018-06-11T15:11:04.050Z,43.77
2018-06-11T15:13:35.511Z,43.93
2018-06-11T15:16:08.461Z,44.04
2018-06-11T15:18:39.574Z,44.84
2018-06-11T15:21:11.037Z,45.47
2018-06-11T15:23:43.647Z,43.13
2018-06-11T15:26:15.988Z,43.35
2018-06-11T15:28:48.207Z,44.21
2018-06-11T15:31:19.870Z,44.24
2018-06-11T15:33:52.517Z,42.45
2018-06-11T15:36:24.049Z,45.03
2018-06-11T15:38:56.728Z,43.24
2018-06-11T15:41:28.206Z,43.82
2018-06-11T15:44:00.269Z,43.80
2018-06-11T15:46:31.653Z,42.60
2018-06-11T15:49:02.981Z,42.14
2018-06-11T15:51:34.718Z,43.70
2018-06-11T15:54:07.081Z,43.44
2018-06-11T15:56:38.487Z,43.31
2018-06-11T15:59:11.295Z,43.67
2018-06-11T16:01:42.659Z,43.86
2018-06-11T16:04:14.057Z,42.72
2018-06-11T16:06:44.595Z,40.98
2018-06-11T16:09:15.026Z,41.51
2018-06-11T16:11:47.463Z,41.75
2018-06-11T16:14:18.617Z,41.96
2018-06-11T16:16:49.833Z,42.08
2018-06-11T16:19:21.105Z,42.49
2018-06-11T16:21:52.999Z,42.50
2018-06-11T16:24:24.481Z,42.93
2018-06-11T16:26:55.969Z,44.68
2018-06-11T16:29:27.562Z,44.72
2018-06-11T16:31:59.005Z,44.63
2018-06-11T16:34:30.857Z,45.30
2018-06-11T16:37:03.771Z,46.07
2018-06-11T16:39:35.868Z,45.99
2018-06-11T16:42:07.366Z,45.99
2018-06-11T16:44:39.354Z,47.07
2018-06-11T16:47:11.773Z,46.95
2018-06-11T16:49:43.533Z,46.44
2018-06-11T16:52:16.556Z,45.10
2018-06-11T16:54:48.730Z,47.20
2018-06-11T16:57:20.814Z,47.64
2018-06-11T16:59:52.117Z,48.27
2018-06-11T17:02:24.612Z,47.71
2018-06-11T17:04:56.156Z,47.79
2018-06-11T17:07:27.534Z,47.86
2018-06-11T17:09:59.965Z,48.27
2018-06-11T17:12:32.134Z,49.16
2018-06-11T17:15:03.723Z,48.79
2018-06-11T17:17:35.586Z,52.51
2018-06-11T17:20:07.562Z,53.56
2018-06-11T17:22:40.965Z,53.97
2018-06-11T17:25:13.542Z,54.68
2018-06-11T17:27:45.803Z,55.25
2018-06-11T17:30:18.522Z,55.56
2018-06-11T17:32:50.245Z,55.87
2018-06-11T17:35:23.589Z,56.05
2018-06-11T17:37:56.962Z,55.75
2018-06-11T17:40:28.954Z,56.65
2018-06-11T17:43:00.847Z,57.66
2018-06-11T17:45:33.259Z,58.04
2018-06-11T17:48:04.671Z,58.08
2018-06-11T17:50:36.040Z,57.76
2018-06-11T17:53:07.538Z,58.78
2018-06-11T17:55:39.011Z,57.22
2018-06-11T17:58:10.371Z,57.69
2018-06-11T18:00:41.731Z,57.88
2018-06-11T18:03:14.054Z,58.17
2018-06-11T18:05:46.484Z,57.14
2018-06-11T18:08:18.367Z,58.12
2018-06-11T18:10:50.508Z,57.48
2018-06-11T18:13:24.410Z,58.41
2018-06-11T18:15:56.700Z,59.29
2018-06-11T18:18:28.846Z,59.83
2018-06-11T18:21:02.287Z,60.03
2018-06-11T18:23:35.918Z,61.57
2018-06-11T18:26:09.312Z,61.35
2018-06-11T18:28:41.683Z,61.67
2018-06-11T18:31:14.353Z,62.44
2018-06-11T18:33:46.225Z,62.89
2018-06-11T18:36:20.297Z,63.79
2018-06-11T18:38:53.105Z,64.65
2018-06-11T18:41:26.329Z,65.16
2018-06-11T18:44:00.091Z,65.60
2018-06-11T18:46:34.072Z,65.98
2018-06-11T18:49:06.549Z,66.36
2018-06-11T18:51:41.404Z,65.94
2018-06-11T18:54:14.606Z,65.90
2018-06-11T18:56:48.144Z,66.13
2018-06-11T18:59:21.129Z,66.50
2018-06-11T19:01:53.738Z,66.45
2018-06-11T19:04:26.828Z,66.66
2018-06-11T19:06:59.633Z,67.59
2018-06-11T19:09:32.717Z,67.43
2018-06-11T19:12:05.470Z,68.53
2018-06-11T19:14:40.588Z,68.41
2018-06-11T19:17:13.231Z,68.99
2018-06-11T19:19:47.485Z,69.00
2018-06-11T19:22:20.975Z,69.58
2018-06-11T19:24:54.356Z,70.58
2018-06-11T19:27:30.713Z,71.41
2018-06-11T19:30:03.682Z,72.29
2018-06-11T19:32:36.003Z,72.61
2018-06-11T19:35:09.072Z,72.17
2018-06-11T19:37:42.437Z,72.17
2018-06-11T19:40:20.023Z,72.22
2018-06-11T19:42:53.404Z,71.65
2018-06-11T19:45:26.753Z,72.34
2018-06-11T19:48:02.096Z,72.24
2018-06-11T19:50:37.004Z,71.85
2018-06-11T19:53:09.805Z,70.25
2018-06-11T19:55:42.665Z,70.64
2018-06-11T19:58:15.624Z,71.22
2018-06-11T20:00:49.070Z,72.45
2018-06-11T20:03:23.500Z,73.32
2018-06-11T20:05:57.901Z,73.36
2018-06-11T20:08:30.968Z,73.11
2018-06-11T20:11:06.044Z,73.25
2018-06-11T20:13:40.710Z,73.24
2018-06-11T20:16:16.740Z,73.16
2018-06-11T20:18:53.576Z,71.83
2018-06-11T20:21:26.600Z,72.63
2018-06-11T20:24:00.599Z,72.54
2018-06-11T20:26:36.987Z,71.74
2018-06-11T20:29:10.159Z,71.68
2018-06-11T20:31:45.190Z,70.57
2018-06-11T20:34:17.900Z,70.70
2018-06-11T20:36:51.210Z,71.11
2018-06-11T20:39:25.464Z,70.29
2018-06-11T20:41:58.941Z,70.68
2018-06-11T20:44:32.352Z,71.10
2018-06-11T20:47:05.556Z,71.09
2018-06-11T20:49:38.580Z,70.58
2018-06-11T20:52:12.056Z,69.81
2018-06-11T20:54:44.809Z,70.81
2018-06-11T20:57:17.931Z,70.47
2018-06-11T20:59:50.000Z,70.08
2018-06-11T21:02:22.238Z,70.39
2018-06-11T21:04:55.893Z,70.11
2018-06-11T21:07:27.702Z,69.83
2018-06-11T21:10:01.272Z,70.54
2018-06-11T21:12:32.953Z,70.58
2018-06-11T21:15:04.916Z,71.62
2018-06-11T21:17:36.305Z,71.92
2018-06-11T21:20:07.786Z,72.46
2018-06-11T21:22:41.347Z,72.50
2018-06-11T21:25:13.791Z,73.03
2018-06-11T21:27:45.154Z,72.87
2018-06-11T21:30:16.313Z,73.01
2018-06-11T21:32:48.304Z,73.31
2018-06-11T21:35:19.646Z,73.04
2018-06-11T21:37:51.588Z,73.73
2018-06-11T21:40:23.470Z,74.80
2018-06-11T21:42:54.528Z,75.45
2018-06-11T21:45:26.004Z,74.59
2018-06-11T21:47:57.264Z,74.50
2018-06-11T21:50:28.243Z,74.19
2018-06-11T21:52:59.467Z,74.16
2018-06-11T21:55:31.248Z,73.93
2018-06-11T21:58:03.179Z,73.75
2018-06-11T22:00:34.877Z,74.10
2018-06-11T22:03:07.321Z,74.31
2018-06-11T22:05:39.123Z,74.03
2018-06-11T22:08:10.703Z,73.89
2018-06-11T22:10:42.311Z,74.53
2018-06-11T22:13:14.498Z,75.05
2018-06-11T22:15:45.788Z,74.90
2018-06-11T22:18:17.361Z,73.94
2018-06-11T22:20:48.929Z,73.64
2018-06-11T22:23:20.687Z,73.48
2018-06-11T22:25:52.352Z,74.38
2018-06-11T22:28:23.910Z,73.48
2018-06-11T22:30:57.325Z,73.23
2018-06-11T22:33:29.760Z,73.98
2018-06-11T22:36:01.245Z,73.12
2018-06-11T22:38:32.542Z,73.11
2018-06-11T22:41:03.763Z,72.42
2018-06-11T22:43:34.856Z,72.48
2018-06-11T22:46:06.635Z,72.48
2018-06-11T22:48:39.918Z,71.65
2018-06-11T22:51:11.256Z,71.89
2018-06-11T22:53:42.704Z,71.61
2018-06-11T22:56:14.016Z,71.55
2018-06-11T22:58:44.914Z,70.14
2018-06-11T23:01:16.184Z,71.62
2018-06-11T23:03:47.586Z,70.76
2018-06-11T23:06:18.881Z,71.71
2018-06-11T23:08:50.543Z,71.65
2018-06-11T23:11:21.428Z,72.26
2018-06-11T23:13:52.489Z,73.62
2018-06-11T23:16:24.399Z,74.45
2018-06-11T23:18:55.254Z,74.65
2018-06-11T23:21:26.541Z,73.47
2018-06-11T23:23:58.632Z,73.19
2018-06-11T23:26:30.139Z,73.04
2018-06-11T23:29:02.134Z,73.14
2018-06-11T23:31:33.517Z,73.37
2018-06-11T23:34:04.510Z,73.52
2018-06-11T23:36:35.534Z,73.43
2018-06-11T23:39:08.354Z,73.52
2018-06-11T23:41:39.427Z,74.06
2018-06-11T23:44:10.429Z,74.13
2018-06-11T23:46:41.708Z,73.94
2018-06-11T23:49:13.814Z,74.77
2018-06-11T23:51:44.672Z,75.59
2018-06-11T23:54:15.726Z,75.62
2018-06-11T23:56:46.823Z,75.53
2018-06-11T23:59:18.505Z,73.72
